Time;durP1;ratioP1;P1;durP2;ratioP2;P2;SDS_P1;SDS_P2;PMS_P1;PMS_P2;Temp;Humidity;BMP_temperature;BMP_pressure;BME280_temperature;BME280_humidity;BME280_pressure;Samples;Min_cycle;Max_cycle;Signal;HPM_P1;HPM_P2
2023/05/08 00:00:38;;;;;;;5.20;3.75;;;10.70;91.40;;;;;;5047910;28;20051;-73
2023/05/08 00:03:04;;;;;;;4.85;3.50;;;10.60;91.50;;;;;;5047968;28;20040;-72
2023/05/08 00:05:30;;;;;;;5.60;4.30;;;10.60;91.60;;;;;;5046929;28;20080;-78
2023/05/08 00:08:00;;;;;;;5.32;3.95;;;10.50;91.60;;;;;;5046090;28;20033;-80
2023/05/08 00:10:27;;;;;;;4.68;3.50;;;10.50;91.70;;;;;;5039532;28;20088;-79
2023/05/08 00:12:53;;;;;;;5.00;3.80;;;10.50;91.80;;;;;;5041784;28;20132;-80
2023/05/08 00:15:19;;;;;;;5.28;3.58;;;10.50;91.90;;;;;;5048237;28;20108;-79
2023/05/08 00:17:44;;;;;;;5.45;3.78;;;10.40;91.90;;;;;;5047278;28;20033;-79
2023/05/08 00:20:11;;;;;;;5.25;4.30;;;10.40;92.00;;;;;;5041605;28;20381;-73
2023/05/08 00:22:36;;;;;;;7.22;4.78;;;10.30;92.00;;;;;;5029255;28;20030;-73
2023/05/08 00:25:04;;;;;;;5.63;4.45;;;10.30;92.10;;;;;;5021841;28;20366;-73
2023/05/08 00:27:30;;;;;;;5.25;4.38;;;10.30;92.20;;;;;;5027923;28;20465;-74
2023/05/08 00:29:56;;;;;;;5.68;4.03;;;10.20;92.50;;;;;;5022884;28;20021;-74
2023/05/08 00:32:22;;;;;;;5.93;4.40;;;10.20;92.30;;;;;;5029013;28;20037;-75
2023/05/08 00:34:48;;;;;;;5.07;3.60;;;10.20;92.60;;;;;;5022474;28;20582;-71
2023/05/08 00:37:13;;;;;;;7.07;4.43;;;10.20;92.50;;;;;;5030425;28;20057;-70
2023/05/08 00:39:39;;;;;;;5.32;4.10;;;10.10;92.60;;;;;;5030454;28;20025;-71
2023/05/08 00:42:05;;;;;;;5.38;4.35;;;10.10;92.60;;;;;;5041338;28;21687;-71
2023/05/08 00:44:30;;;;;;;5.93;4.45;;;10.10;92.70;;;;;;5052159;28;20363;-71
2023/05/08 00:46:56;;;;;;;5.43;4.47;;;10.10;92.70;;;;;;5044109;28;20033;-71
2023/05/08 00:49:23;;;;;;;7.20;4.40;;;10.00;93.00;;;;;;5034023;28;20025;-71
2023/05/08 00:51:51;;;;;;;6.75;4.72;;;10.00;92.80;;;;;;5037084;28;20459;-72
2023/05/08 00:54:17;;;;;;;5.55;4.70;;;10.00;92.90;;;;;;5047261;28;20449;-73
2023/05/08 00:56:44;;;;;;;5.82;4.50;;;10.00;92.90;;;;;;5049774;28;20490;-72
2023/05/08 00:59:14;;;;;;;7.97;5.25;;;9.90;93.00;;;;;;5040965;28;20032;-73
2023/05/08 01:01:41;;;;;;;4.90;4.22;;;9.90;93.10;;;;;;5042120;28;20060;-73
2023/05/08 01:04:06;;;;;;;5.45;4.43;;;9.90;93.10;;;;;;5052202;28;20126;-73
2023/05/08 01:06:38;;;;;;;6.88;4.85;;;9.80;93.20;;;;;;5041619;28;20033;-73
2023/05/08 01:09:04;;;;;;;6.28;4.97;;;9.80;93.30;;;;;;5051197;28;20029;-73
2023/05/08 01:11:52;;;;;;;6.20;5.05;;;9.80;93.30;;;;;;5039976;28;20468;-73
2023/05/08 01:14:35;;;;;;;8.35;4.72;;;9.80;93.40;;;;;;5038936;28;20082;-73
2023/05/08 01:17:22;;;;;;;7.32;4.90;;;9.80;93.40;;;;;;5044926;28;20167;-73
2023/05/08 01:20:05;;;;;;;6.72;4.65;;;9.70;93.40;;;;;;5031403;28;20061;-73
2023/05/08 01:22:49;;;;;;;5.95;4.82;;;9.70;93.50;;;;;;5039745;28;20498;-73
2023/05/08 01:25:39;;;;;;;6.67;4.83;;;9.60;93.50;;;;;;5048728;28;20036;-72
2023/05/08 01:28:34;;;;;;;6.32;4.45;;;9.60;93.60;;;;;;5041772;28;20357;-74
2023/05/08 01:31:21;;;;;;;5.20;4.47;;;9.60;93.60;;;;;;5048508;28;20115;-73
2023/05/08 01:34:04;;;;;;;6.32;4.68;;;9.60;93.60;;;;;;5027253;28;20166;-71
2023/05/08 01:36:50;;;;;;;7.63;4.75;;;9.60;93.70;;;;;;5049300;28;20060;-71
2023/05/08 01:39:50;;;;;;;6.95;4.35;;;9.50;93.80;;;;;;5050893;28;20043;-71
2023/05/08 01:42:32;;;;;;;6.65;5.03;;;9.50;93.80;;;;;;5049893;28;20508;-74
2023/05/08 01:45:28;;;;;;;6.53;4.70;;;9.50;93.90;;;;;;5033648;28;20028;-72
2023/05/08 01:48:04;;;;;;;;;;;9.40;93.90;;;;;;5028744;28;20037;-74
2023/05/08 01:50:34;;;;;;;6.68;4.28;;;9.40;93.60;;;;;;5050618;28;19915;-74
2023/05/08 01:53:11;;;;;;;6.22;4.55;;;9.40;93.80;;;;;;5046765;28;20033;-74
2023/05/08 01:55:39;;;;;;;4.97;4.15;;;9.50;94.10;;;;;;5033590;28;20110;-72
2023/05/08 01:58:09;;;;;;;5.88;4.60;;;9.40;94.10;;;;;;5023007;28;20128;-74
2023/05/08 02:00:38;;;;;;;7.07;4.93;;;9.40;94.20;;;;;;5014232;28;20484;-74
2023/05/08 02:03:06;;;;;;;6.45;4.88;;;9.40;94.20;;;;;;5045522;28;20054;-73
2023/05/08 02:05:35;;;;;;;6.18;4.97;;;9.40;94.20;;;;;;5032932;28;20095;-73
2023/05/08 02:08:02;;;;;;;5.40;4.60;;;9.40;94.30;;;;;;5031517;28;20497;-74
2023/05/08 02:10:28;;;;;;;6.07;4.78;;;9.40;94.30;;;;;;5040781;28;20071;-73
2023/05/08 02:12:55;;;;;;;5.88;4.60;;;9.30;94.30;;;;;;5045269;28;20178;-75
2023/05/08 02:15:23;;;;;;;7.15;4.88;;;9.30;94.40;;;;;;5049630;28;20458;-78
2023/05/08 02:17:51;;;;;;;9.02;5.57;;;9.20;94.40;;;;;;5031078;28;20052;-78
2023/05/08 02:20:19;;;;;;;7.03;5.20;;;9.20;94.40;;;;;;5049383;28;20040;-78
2023/05/08 02:22:47;;;;;;;7.50;5.35;;;9.20;94.70;;;;;;5031097;28;20040;-78
2023/05/08 02:25:15;;;;;;;6.13;4.22;;;9.10;94.60;;;;;;5028007;28;20033;-77
2023/05/08 02:27:48;;;;;;;7.35;4.68;;;9.10;94.70;;;;;;5036800;28;20025;-78
2023/05/08 02:30:15;;;;;;;6.15;5.03;;;9.00;94.70;;;;;;5031579;28;20028;-77
2023/05/08 02:32:45;;;;;;;5.45;4.53;;;9.00;94.70;;;;;;5041289;28;20025;-77
2023/05/08 02:35:17;;;;;;;6.75;4.88;;;8.90;94.80;;;;;;5048358;28;20056;-78
2023/05/08 02:37:50;;;;;;;6.43;5.10;;;9.00;94.90;;;;;;5018269;28;20292;-77
2023/05/08 02:40:17;;;;;;;14.02;5.50;;;8.90;94.90;;;;;;5029652;28;20057;-77
2023/05/08 02:42:43;;;;;;;7.75;4.65;;;8.90;95.00;;;;;;5034846;28;20478;-75
2023/05/08 02:45:11;;;;;;;5.82;5.07;;;8.90;95.00;;;;;;5031848;28;20033;-75
2023/05/08 02:47:46;;;;;;;6.25;5.05;;;8.90;95.10;;;;;;5025630;28;20025;-75
2023/05/08 02:50:25;;;;;;;6.18;4.75;;;8.80;95.10;;;;;;5030426;28;20037;-75
2023/05/08 02:52:56;;;;;;;7.82;4.75;;;8.80;95.10;;;;;;5046057;28;20047;-75
2023/05/08 02:55:38;;;;;;;6.88;4.80;;;8.80;95.10;;;;;;5050545;28;20056;-73
2023/05/08 02:58:09;;;;;;;6.68;4.60;;;8.80;95.20;;;;;;5034404;28;20057;-73
2023/05/08 03:00:47;;;;;;;6.70;5.07;;;8.70;95.20;;;;;;5022431;28;20111;-74
2023/05/08 03:03:24;;;;;;;8.15;5.22;;;8.70;95.20;;;;;;5044697;28;20033;-75
2023/05/08 03:05:55;;;;;;;6.35;4.93;;;8.70;95.30;;;;;;5025004;28;20057;-75
2023/05/08 03:08:31;;;;;;;7.13;5.50;;;8.60;95.30;;;;;;5029471;28;20068;-75
2023/05/08 03:11:02;;;;;;;6.47;5.03;;;8.70;95.40;;;;;;5043648;28;20029;-75
2023/05/08 03:13:31;;;;;;;5.55;4.82;;;8.60;95.40;;;;;;5046990;28;20461;-75
2023/05/08 03:16:00;;;;;;;7.65;5.53;;;8.60;95.40;;;;;;5045739;28;20094;-75
2023/05/08 03:18:35;;;;;;;7.18;5.20;;;8.60;95.50;;;;;;5048886;28;20135;-71
2023/05/08 03:21:02;;;;;;;6.15;4.82;;;8.60;95.50;;;;;;5034507;28;20030;-71
2023/05/08 03:23:32;;;;;;;7.03;5.25;;;8.50;95.50;;;;;;5039242;28;20029;-71
2023/05/08 03:25:59;;;;;;;7.55;5.22;;;8.50;95.50;;;;;;5029912;28;20025;-72
2023/05/08 03:28:27;;;;;;;7.75;5.18;;;8.50;95.60;;;;;;5048400;28;20040;-74
2023/05/08 03:30:54;;;;;;;8.48;5.00;;;8.50;95.60;;;;;;5044928;28;20025;-74
2023/05/08 03:33:22;;;;;;;6.20;4.82;;;8.40;95.70;;;;;;5040900;28;20025;-73
2023/05/08 03:35:49;;;;;;;7.38;5.20;;;8.40;95.80;;;;;;5039317;28;20479;-73
2023/05/08 03:38:16;;;;;;;7.88;5.60;;;8.40;95.80;;;;;;5046726;28;20563;-72
2023/05/08 03:40:42;;;;;;;7.38;5.38;;;8.40;95.90;;;;;;5044031;28;20021;-73
2023/05/08 03:43:08;;;;;;;6.45;4.80;;;8.40;95.90;;;;;;5047635;28;20031;-72
2023/05/08 03:45:35;;;;;;;8.23;6.22;;;8.30;95.90;;;;;;5048393;28;20112;-72
2023/05/08 03:48:04;;;;;;;8.90;5.30;;;8.40;96.00;;;;;;5048850;28;20050;-72
2023/05/08 03:50:30;;;;;;;8.60;5.70;;;8.30;96.10;;;;;;5048175;28;20035;-72
2023/05/08 03:52:57;;;;;;;9.00;5.18;;;8.40;96.10;;;;;;5023220;28;20045;-72
2023/05/08 03:55:23;;;;;;;8.20;5.75;;;8.40;96.20;;;;;;5023871;28;20112;-72
2023/05/08 03:58:22;;;;;;;7.68;5.70;;;8.40;96.20;;;;;;5044796;28;20593;-72
2023/05/08 04:00:51;;;;;;;6.95;5.25;;;8.40;96.30;;;;;;5026762;28;20029;-72
2023/05/08 04:03:50;;;;;;;7.38;5.78;;;8.40;96.20;;;;;;5033976;28;20033;-71
2023/05/08 04:06:42;;;;;;;6.45;5.10;;;8.40;96.30;;;;;;5041624;28;20103;-70
2023/05/08 04:09:17;;;;;;;6.53;4.85;;;8.40;96.30;;;;;;5048733;28;20469;-71
2023/05/08 04:11:58;;;;;;;;;;;8.40;96.30;;;;;;5045740;28;20120;-73
2023/05/08 04:14:26;;;;;;;7.57;5.90;;;8.40;96.20;;;;;;5025590;28;19996;-71
2023/05/08 04:16:59;;;;;;;6.10;4.95;;;8.30;96.20;;;;;;5042937;28;20055;-70
2023/05/08 04:19:28;;;;;;;6.82;4.55;;;8.30;96.30;;;;;;5032802;28;20033;-70
2023/05/08 04:22:00;;;;;;;8.20;5.72;;;8.40;96.40;;;;;;5044664;28;20083;-70
2023/05/08 04:24:29;;;;;;;7.40;5.70;;;8.40;96.50;;;;;;5053327;28;20029;-74
2023/05/08 04:26:55;;;;;;;7.10;5.47;;;8.40;96.60;;;;;;5041972;28;20030;-74
2023/05/08 04:29:21;;;;;;;8.88;5.72;;;8.40;96.50;;;;;;5034740;28;20071;-74
2023/05/08 04:31:49;;;;;;;9.02;5.72;;;8.40;96.50;;;;;;5029846;28;20209;-74
2023/05/08 04:34:15;;;;;;;10.65;5.88;;;8.40;96.60;;;;;;5051022;28;20036;-74
2023/05/08 04:36:42;;;;;;;6.80;4.80;;;8.40;96.60;;;;;;5030163;28;20038;-74
2023/05/08 04:39:07;;;;;;;11.43;6.07;;;8.40;96.70;;;;;;5044985;28;20076;-74
2023/05/08 04:41:34;;;;;;;7.30;5.68;;;8.40;96.70;;;;;;5025841;28;20025;-74
2023/05/08 04:44:00;;;;;;;9.13;5.97;;;8.50;96.70;;;;;;5030298;28;20438;-75
2023/05/08 04:46:25;;;;;;;6.70;5.45;;;8.50;96.70;;;;;;5038960;28;20087;-74
2023/05/08 04:48:51;;;;;;;7.63;5.30;;;8.50;96.80;;;;;;5036627;28;20029;-75
2023/05/08 04:51:17;;;;;;;8.38;5.38;;;8.50;96.70;;;;;;5039563;28;20065;-78
2023/05/08 04:53:42;;;;;;;8.68;6.20;;;8.60;96.70;;;;;;5034121;28;20029;-78
2023/05/08 04:56:08;;;;;;;9.57;6.40;;;8.50;96.70;;;;;;5036791;28;20068;-76
2023/05/08 04:58:34;;;;;;;6.85;5.28;;;8.60;96.70;;;;;;5032652;28;20087;-75
2023/05/08 05:01:03;;;;;;;6.80;5.13;;;8.70;96.70;;;;;;5041711;28;20022;-75
2023/05/08 05:03:29;;;;;;;6.07;5.18;;;8.70;96.70;;;;;;5052667;28;20060;-76
2023/05/08 05:06:01;;;;;;;8.10;5.53;;;8.70;96.70;;;;;;5032690;28;20489;-75
2023/05/08 05:08:27;;;;;;;8.50;5.55;;;8.80;96.70;;;;;;5033078;28;20037;-76
2023/05/08 05:10:53;;;;;;;7.30;5.35;;;8.80;96.70;;;;;;5044949;28;20090;-76
2023/05/08 05:13:18;;;;;;;8.13;5.55;;;8.80;96.70;;;;;;5033064;28;20116;-79
2023/05/08 05:15:44;;;;;;;7.63;5.07;;;8.90;96.70;;;;;;5050655;28;20559;-79
2023/05/08 05:18:10;;;;;;;6.05;4.70;;;9.00;96.70;;;;;;5033852;28;20037;-78
2023/05/08 05:20:36;;;;;;;7.78;5.47;;;9.00;96.70;;;;;;5043792;28;20301;-73
2023/05/08 05:23:02;;;;;;;6.93;4.65;;;9.00;96.60;;;;;;5047803;28;20048;-73
2023/05/08 05:25:28;;;;;;;8.07;5.07;;;9.10;96.50;;;;;;5031689;28;20039;-72
2023/05/08 05:27:53;;;;;;;9.25;5.25;;;9.10;96.50;;;;;;5044537;28;20037;-73
2023/05/08 05:30:19;;;;;;;8.30;5.25;;;9.20;96.50;;;;;;5038504;28;20025;-73
2023/05/08 05:32:45;;;;;;;7.68;5.25;;;9.30;96.50;;;;;;5031898;28;20029;-77
2023/05/08 05:35:10;;;;;;;6.85;4.97;;;9.40;96.40;;;;;;5032103;28;20542;-76
2023/05/08 05:37:36;;;;;;;7.60;4.65;;;9.40;96.30;;;;;;5014080;28;20095;-76
2023/05/08 05:40:02;;;;;;;5.68;4.07;;;9.50;96.20;;;;;;5039084;28;20056;-77
2023/05/08 05:42:28;;;;;;;6.03;4.35;;;9.50;96.10;;;;;;5034897;28;20042;-77
2023/05/08 05:44:55;;;;;;;7.65;4.75;;;9.50;96.00;;;;;;5038401;28;20033;-76
2023/05/08 05:47:21;;;;;;;5.90;4.55;;;9.60;95.90;;;;;;5032929;28;20484;-79
2023/05/08 05:49:47;;;;;;;7.57;3.80;;;9.60;95.80;;;;;;5050982;28;20041;-74
2023/05/08 05:52:13;;;;;;;8.80;4.60;;;9.70;95.80;;;;;;5032434;28;20029;-75
2023/05/08 05:54:40;;;;;;;6.53;4.95;;;9.80;95.70;;;;;;5050245;28;20540;-73
2023/05/08 05:57:06;;;;;;;5.05;3.88;;;9.80;95.50;;;;;;5045497;28;20563;-74
2023/05/08 05:59:32;;;;;;;4.70;3.65;;;9.80;95.40;;;;;;5032646;28;20024;-67
2023/05/08 06:01:58;;;;;;;6.85;4.13;;;9.90;95.20;;;;;;5044103;28;20540;-66
2023/05/08 06:04:23;;;;;;;6.45;4.60;;;9.90;95.30;;;;;;5051222;28;20052;-65
2023/05/08 06:06:49;;;;;;;6.93;4.20;;;10.00;95.20;;;;;;5046926;28;20036;-67
2023/05/08 06:09:14;;;;;;;4.68;3.33;;;10.00;95.10;;;;;;5051095;28;20473;-65
2023/05/08 06:11:41;;;;;;;4.82;3.35;;;10.10;95.00;;;;;;5046469;28;20025;-66
2023/05/08 06:14:06;;;;;;;5.07;3.92;;;10.10;94.90;;;;;;5034944;28;20048;-66
2023/05/08 06:16:34;;;;;;;7.72;4.07;;;10.20;94.80;;;;;;5030555;28;20077;-66
2023/05/08 06:19:00;;;;;;;6.60;4.18;;;10.20;94.70;;;;;;5047377;28;20167;-66
2023/05/08 06:21:27;;;;;;;4.80;3.45;;;10.30;94.70;;;;;;5038815;28;20132;-65
2023/05/08 06:23:53;;;;;;;4.72;3.42;;;10.30;94.50;;;;;;5030925;28;20034;-66
2023/05/08 06:26:19;;;;;;;4.95;3.42;;;10.40;94.30;;;;;;5041821;28;20039;-67
2023/05/08 06:28:45;;;;;;;5.00;3.45;;;10.40;94.10;;;;;;5046116;28;20392;-67
2023/05/08 06:31:10;;;;;;;4.75;3.13;;;10.50;94.00;;;;;;5040296;28;20021;-71
2023/05/08 06:33:36;;;;;;;7.82;3.67;;;10.50;93.90;;;;;;5041564;28;20179;-72
2023/05/08 06:36:04;;;;;;;4.18;3.05;;;10.50;94.00;;;;;;5045864;28;20033;-71
2023/05/08 06:38:30;;;;;;;5.72;3.42;;;10.60;94.00;;;;;;5048200;28;20493;-71
2023/05/08 06:40:56;;;;;;;5.90;3.33;;;10.60;93.70;;;;;;5030230;28;20032;-71
2023/05/08 06:43:22;;;;;;;4.43;3.47;;;10.70;93.60;;;;;;5048253;28;20029;-72
2023/05/08 06:45:47;;;;;;;5.30;3.20;;;10.70;93.50;;;;;;5029215;28;20501;-71
2023/05/08 06:48:13;;;;;;;5.97;2.85;;;10.80;93.40;;;;;;5044164;28;20575;-71
2023/05/08 06:50:39;;;;;;;4.35;3.17;;;10.90;93.20;;;;;;5042715;28;20160;-72
2023/05/08 06:53:06;;;;;;;5.00;3.40;;;10.90;92.90;;;;;;5041035;28;20033;-72
2023/05/08 06:55:32;;;;;;;4.38;3.20;;;11.00;92.80;;;;;;5029799;28;20029;-74
2023/05/08 06:57:57;;;;;;;6.45;3.50;;;11.00;92.70;;;;;;5041443;28;20138;-70
2023/05/08 07:00:23;;;;;;;4.55;2.65;;;11.10;92.70;;;;;;5047432;28;20059;-71
2023/05/08 07:02:49;;;;;;;4.80;3.17;;;11.10;92.50;;;;;;5049115;28;20064;-76
2023/05/08 07:05:14;;;;;;;3.58;2.60;;;11.20;91.90;;;;;;5044762;28;20635;-73
2023/05/08 07:07:41;;;;;;;5.82;2.92;;;11.20;91.90;;;;;;5039859;28;20026;-71
2023/05/08 07:10:07;;;;;;;5.00;3.05;;;11.30;91.90;;;;;;5031125;28;20595;-74
2023/05/08 07:12:33;;;;;;;4.65;2.90;;;11.30;91.90;;;;;;5032001;28;20041;-71
2023/05/08 07:14:58;;;;;;;4.07;2.95;;;11.40;91.80;;;;;;5038942;28;20040;-72
2023/05/08 07:17:24;;;;;;;4.20;2.90;;;11.50;91.80;;;;;;5045074;28;20037;-66
2023/05/08 07:19:50;;;;;;;5.40;2.83;;;11.60;91.70;;;;;;5046324;28;20025;-66
2023/05/08 07:22:16;;;;;;;4.15;2.72;;;11.70;91.70;;;;;;5047837;28;20036;-66
2023/05/08 07:24:41;;;;;;;3.80;2.70;;;11.70;91.50;;;;;;5044553;28;20040;-66
2023/05/08 07:27:07;;;;;;;4.35;2.55;;;11.80;91.30;;;;;;5040774;28;20035;-66
2023/05/08 07:29:36;;;;;;;4.78;3.33;;;11.90;91.20;;;;;;5042296;28;20060;-65
2023/05/08 07:32:05;;;;;;;4.13;2.30;;;12.00;91.10;;;;;;5027134;28;20037;-66
2023/05/08 07:34:32;;;;;;;3.85;2.60;;;12.10;90.70;;;;;;5035087;28;20036;-65
2023/05/08 07:36:58;;;;;;;5.50;2.95;;;12.20;90.50;;;;;;5016998;28;20461;-65
2023/05/08 07:39:24;;;;;;;6.18;2.85;;;12.30;90.30;;;;;;5039631;28;20029;-66
2023/05/08 07:41:49;;;;;;;4.72;2.55;;;12.40;89.00;;;;;;5032946;28;20077;-65
2023/05/08 07:44:15;;;;;;;4.15;2.35;;;12.40;88.60;;;;;;5041147;28;20029;-65
2023/05/08 07:46:41;;;;;;;5.88;2.55;;;12.50;88.40;;;;;;5035732;28;20048;-65
2023/05/08 07:49:06;;;;;;;4.30;2.50;;;12.60;87.90;;;;;;5042999;28;20048;-67
2023/05/08 07:51:32;;;;;;;3.72;2.60;;;12.60;87.10;;;;;;5046709;28;20025;-64
2023/05/08 07:53:57;;;;;;;5.10;2.47;;;12.60;86.60;;;;;;5044658;28;20060;-65
2023/05/08 07:56:23;;;;;;;6.82;2.60;;;12.80;86.50;;;;;;5037331;28;20021;-64
2023/05/08 07:58:49;;;;;;;3.47;2.53;;;12.80;86.60;;;;;;5044153;28;20067;-65
2023/05/08 08:01:16;;;;;;;6.20;2.50;;;12.90;86.30;;;;;;5034138;28;20037;-64
2023/05/08 08:03:43;;;;;;;4.72;2.90;;;13.00;85.70;;;;;;5039732;28;20546;-63
2023/05/08 08:06:09;;;;;;;3.47;2.70;;;13.10;85.70;;;;;;5039901;28;20033;-65
2023/05/08 08:08:37;;;;;;;3.38;2.13;;;13.10;85.20;;;;;;5008592;28;21578;-65
2023/05/08 08:11:02;;;;;;;5.55;2.30;;;13.20;85.50;;;;;;5021693;28;20095;-63
2023/05/08 08:13:28;;;;;;;4.38;2.63;;;13.30;84.00;;;;;;5021599;28;20025;-64
2023/05/08 08:15:53;;;;;;;4.75;2.15;;;13.30;83.10;;;;;;5009911;28;20095;-64
2023/05/08 08:18:19;;;;;;;3.50;2.40;;;13.40;82.80;;;;;;5019760;28;20498;-65
2023/05/08 08:20:44;;;;;;;6.57;2.50;;;13.50;81.90;;;;;;5009450;28;20482;-67
2023/05/08 08:23:10;;;;;;;4.28;2.10;;;13.50;81.20;;;;;;5029542;28;20060;-65
2023/05/08 08:25:36;;;;;;;4.07;2.30;;;13.60;81.20;;;;;;5028229;28;20113;-65
2023/05/08 08:28:01;;;;;;;5.00;2.63;;;13.60;80.80;;;;;;5028906;28;20470;-65
2023/05/08 08:30:27;;;;;;;3.50;2.20;;;13.70;80.50;;;;;;5027416;28;20126;-65
2023/05/08 08:32:52;;;;;;;4.43;2.35;;;13.80;80.20;;;;;;5020792;28;20498;-65
2023/05/08 08:35:18;;;;;;;4.40;2.60;;;13.90;79.70;;;;;;5023088;28;20033;-65
2023/05/08 08:37:44;;;;;;;5.57;2.10;;;14.00;78.40;;;;;;5007379;28;20584;-64
2023/05/08 08:40:09;;;;;;;3.72;2.10;;;14.00;77.60;;;;;;5029658;28;20503;-65
2023/05/08 08:42:35;;;;;;;4.90;2.22;;;14.10;77.20;;;;;;5007812;28;20486;-65
2023/05/08 08:45:02;;;;;;;2.55;2.10;;;14.20;77.00;;;;;;5022036;28;20546;-64
2023/05/08 08:47:28;;;;;;;4.82;2.05;;;14.20;75.50;;;;;;5024824;28;20026;-62
2023/05/08 08:49:57;;;;;;;4.57;2.40;;;14.30;75.20;;;;;;5024442;28;20064;-66
2023/05/08 08:52:44;;;;;;;3.47;2.20;;;14.30;75.30;;;;;;5014992;28;20021;-63
2023/05/08 08:55:13;;;;;;;4.93;2.33;;;14.40;75.30;;;;;;5014705;28;20049;-64
2023/05/08 08:57:50;;;;;;;7.10;2.28;;;14.50;75.60;;;;;;5015511;28;20498;-64
2023/05/08 09:00:18;;;;;;;5.55;2.40;;;14.60;75.40;;;;;;5024472;28;20037;-64
2023/05/08 09:02:44;;;;;;;7.10;1.73;;;14.60;75.40;;;;;;5024073;28;20025;-64
2023/05/08 09:05:10;;;;;;;5.32;2.15;;;14.70;75.40;;;;;;5025920;28;20042;-64
2023/05/08 09:07:37;;;;;;;3.75;2.10;;;14.70;74.90;;;;;;5009752;28;20025;-64
2023/05/08 09:10:06;;;;;;;3.20;2.00;;;14.80;74.80;;;;;;5030956;28;20041;-64
2023/05/08 09:12:31;;;;;;;3.80;2.10;;;14.80;74.60;;;;;;5028412;28;20383;-64
2023/05/08 09:14:57;;;;;;;8.55;2.65;;;14.90;74.70;;;;;;5019434;28;20036;-65
2023/05/08 09:17:23;;;;;;;3.15;1.90;;;15.00;74.60;;;;;;5027074;28;20442;-66
2023/05/08 09:19:49;;;;;;;4.15;2.20;;;15.00;74.40;;;;;;5029053;28;20030;-70
2023/05/08 09:22:14;;;;;;;4.55;2.22;;;15.10;74.10;;;;;;5030229;28;20037;-71
2023/05/08 09:24:59;;;;;;;3.47;1.90;;;15.20;73.90;;;;;;5031429;28;20109;-71
2023/05/08 09:27:27;;;;;;;8.18;2.25;;;15.20;73.90;;;;;;5027547;28;20037;-71
2023/05/08 09:30:05;;;;;;;2.92;1.92;;;15.30;73.90;;;;;;5022650;28;20038;-72
2023/05/08 09:32:31;;;;;;;4.50;2.42;;;15.40;72.70;;;;;;5028912;28;20041;-71
2023/05/08 09:35:01;;;;;;;4.85;2.60;;;15.40;72.20;;;;;;5030774;28;20091;-72
2023/05/08 09:37:27;;;;;;;5.47;2.05;;;15.50;72.10;;;;;;5029964;28;20115;-71
2023/05/08 09:39:53;;;;;;;6.40;2.42;;;15.50;72.00;;;;;;5030355;28;20056;-71
2023/05/08 09:42:19;;;;;;;6.25;2.60;;;15.50;70.90;;;;;;5012044;28;20509;-72
2023/05/08 09:44:48;;;;;;;4.93;2.10;;;15.60;71.00;;;;;;5013595;28;20482;-71
2023/05/08 09:47:21;;;;;;;5.63;2.13;;;15.70;70.60;;;;;;5029999;28;20029;-72
2023/05/08 09:50:08;;;;;;;3.15;2.08;;;15.70;70.00;;;;;;5028827;28;20514;-72
2023/05/08 09:52:44;;;;;;;3.40;2.10;;;15.70;70.00;;;;;;5024332;28;20069;-71
2023/05/08 09:55:10;;;;;;;5.38;1.90;;;15.70;70.10;;;;;;5029360;28;20532;-72
2023/05/08 09:57:38;;;;;;;3.80;2.15;;;15.90;70.00;;;;;;5019504;28;20045;-71
2023/05/08 10:00:06;;;;;;;4.47;2.45;;;15.90;69.40;;;;;;5029654;28;20399;-71
2023/05/08 10:02:32;;;;;;;3.63;2.30;;;16.00;69.60;;;;;;5015688;28;20964;-71
2023/05/08 10:04:58;;;;;;;5.10;2.20;;;16.10;68.90;;;;;;5029746;28;20053;-70
2023/05/08 10:07:28;;;;;;;4.53;2.10;;;16.10;68.60;;;;;;5027249;28;20369;-71
2023/05/08 10:10:01;;;;;;;6.03;2.35;;;16.10;68.70;;;;;;5009753;28;20042;-70
2023/05/08 10:12:27;;;;;;;2.50;1.58;;;16.10;66.90;;;;;;5027527;28;20545;-71
2023/05/08 10:14:54;;;;;;;4.57;1.70;;;16.20;67.10;;;;;;5030526;28;20037;-71
2023/05/08 10:17:36;;;;;;;2.70;1.70;;;16.20;66.50;;;;;;5022778;28;20128;-71
2023/05/08 10:20:06;;;;;;;3.50;1.90;;;16.30;66.20;;;;;;5029694;28;20069;-70
2023/05/08 10:22:36;;;;;;;3.40;2.10;;;16.30;65.60;;;;;;5023114;28;20115;-70
2023/05/08 10:25:02;;;;;;;4.53;2.25;;;16.30;65.40;;;;;;5018703;28;20540;-70
2023/05/08 10:27:44;;;;;;;4.30;1.92;;;16.40;64.50;;;;;;5029332;28;20033;-71
2023/05/08 10:30:13;;;;;;;4.25;2.05;;;16.40;64.40;;;;;;5011365;28;20045;-71
2023/05/08 10:32:43;;;;;;;2.33;1.50;;;16.40;63.10;;;;;;5014838;28;20396;-70
2023/05/08 10:35:10;;;;;;;5.95;3.00;;;16.50;62.10;;;;;;5029975;28;20030;-70
2023/05/08 10:37:38;;;;;;;4.28;1.55;;;16.50;62.40;;;;;;5028240;28;20303;-71
2023/05/08 10:40:05;;;;;;;5.43;1.50;;;16.60;62.30;;;;;;5018220;28;20145;-71
2023/05/08 10:42:34;;;;;;;2.28;1.80;;;16.60;62.60;;;;;;5024301;28;20124;-71
2023/05/08 10:45:01;;;;;;;2.45;1.65;;;16.70;62.50;;;;;;5029093;28;20363;-72
2023/05/08 10:47:32;;;;;;;3.40;2.58;;;16.70;62.30;;;;;;5025252;28;20374;-71
2023/05/08 10:50:21;;;;;;;6.47;2.00;;;16.80;62.30;;;;;;5028578;28;20144;-70
2023/05/08 10:53:03;;;;;;;4.68;2.35;;;16.90;62.90;;;;;;5024926;28;20029;-70
2023/05/08 10:55:31;;;;;;;4.22;2.03;;;16.90;63.00;;;;;;5026833;28;20025;-71
2023/05/08 10:58:14;;;;;;;3.10;1.85;;;17.00;62.80;;;;;;5028596;28;20041;-70
2023/05/08 11:00:51;;;;;;;2.75;1.88;;;17.10;63.00;;;;;;5015356;28;20486;-70
2023/05/08 11:03:17;;;;;;;4.18;1.77;;;17.10;62.40;;;;;;5027609;28;20355;-69
2023/05/08 11:05:47;;;;;;;6.05;1.90;;;17.10;62.20;;;;;;5026371;28;20128;-70
2023/05/08 11:08:24;;;;;;;4.15;1.77;;;17.10;61.90;;;;;;5024281;28;20434;-70
2023/05/08 11:11:03;;;;;;;5.65;1.90;;;17.20;61.80;;;;;;5011004;28;20271;-70
2023/05/08 11:13:41;;;;;;;3.83;2.00;;;17.20;61.80;;;;;;5028929;28;20037;-70
2023/05/08 11:16:09;;;;;;;7.03;1.80;;;17.30;61.90;;;;;;5018962;28;20479;-70
2023/05/08 11:18:35;;;;;;;3.45;1.98;;;17.30;61.90;;;;;;5020656;28;20052;-70
2023/05/08 11:21:13;;;;;;;2.53;1.90;;;17.40;61.80;;;;;;5016606;28;20433;-70
2023/05/08 11:23:38;;;;;;;6.53;1.80;;;17.50;62.00;;;;;;5016364;28;20560;-70
2023/05/08 11:26:13;;;;;;;5.78;2.08;;;17.50;61.00;;;;;;5006842;28;20356;-71
2023/05/08 11:28:55;;;;;;;4.15;1.60;;;17.60;60.60;;;;;;5020798;28;20458;-70
2023/05/08 11:31:21;;;;;;;6.95;1.73;;;17.50;59.80;;;;;;5004112;28;20121;-70
2023/05/08 11:33:47;;;;;;;3.75;1.70;;;17.50;59.20;;;;;;5023860;28;20037;-71
2023/05/08 11:36:16;;;;;;;4.18;1.90;;;17.50;59.40;;;;;;5028433;28;20468;-70
2023/05/08 11:38:43;;;;;;;3.63;2.10;;;17.60;59.60;;;;;;5014506;28;20041;-69
2023/05/08 11:41:10;;;;;;;2.65;1.63;;;17.70;57.70;;;;;;5027327;28;20083;-69
2023/05/08 11:43:44;;;;;;;6.35;1.70;;;17.70;58.00;;;;;;5024335;28;20041;-70
2023/05/08 11:46:14;;;;;;;3.00;1.88;;;17.70;58.10;;;;;;5028241;28;20029;-69
2023/05/08 11:48:40;;;;;;;8.00;2.35;;;17.70;57.80;;;;;;5017099;28;20041;-69
2023/05/08 11:51:05;;;;;;;4.60;2.40;;;17.70;57.80;;;;;;5034864;28;20067;-70
2023/05/08 11:53:32;;;;;;;3.05;1.65;;;17.70;57.80;;;;;;5029059;28;20041;-69
2023/05/08 11:55:59;;;;;;;2.05;1.30;;;17.60;57.60;;;;;;5025406;28;20033;-69
2023/05/08 11:58:25;;;;;;;4.57;1.83;;;17.70;57.60;;;;;;5016859;28;20117;-71
2023/05/08 12:00:51;;;;;;;4.25;1.70;;;17.80;57.80;;;;;;5024543;28;20518;-70
2023/05/08 12:03:19;;;;;;;5.63;1.85;;;17.80;57.70;;;;;;5019640;28;20117;-70
2023/05/08 12:05:45;;;;;;;5.70;1.98;;;17.90;57.20;;;;;;5028535;28;20132;-70
2023/05/08 12:08:12;;;;;;;5.95;2.00;;;17.90;57.20;;;;;;5027491;28;20037;-70
2023/05/08 12:10:55;;;;;;;3.22;1.70;;;17.90;56.70;;;;;;5011269;28;20034;-71
2023/05/08 12:13:22;;;;;;;2.58;1.50;;;18.00;57.10;;;;;;5022255;28;20502;-70
2023/05/08 12:15:50;;;;;;;3.20;1.70;;;18.00;56.50;;;;;;5013046;28;20061;-71
2023/05/08 12:18:16;;;;;;;2.42;1.50;;;18.00;57.60;;;;;;5022099;28;20091;-70
2023/05/08 12:20:42;;;;;;;5.88;1.98;;;18.10;57.10;;;;;;5026955;28;20028;-71
2023/05/08 12:23:11;;;;;;;6.22;1.80;;;18.20;56.30;;;;;;5021478;28;20034;-71
2023/05/08 12:25:38;;;;;;;5.60;1.60;;;18.20;55.80;;;;;;5017980;28;20025;-70
2023/05/08 12:28:08;;;;;;;8.48;1.70;;;18.20;56.10;;;;;;5008272;28;20038;-63
2023/05/08 12:30:34;;;;;;;2.70;1.45;;;18.30;56.50;;;;;;5008147;28;20038;-64
2023/05/08 12:33:01;;;;;;;2.15;1.67;;;18.40;56.40;;;;;;5008366;28;20049;-63
2023/05/08 12:35:27;;;;;;;2.90;2.00;;;18.40;55.50;;;;;;5010255;28;20042;-64
2023/05/08 12:37:53;;;;;;;4.68;1.98;;;18.50;56.00;;;;;;5012209;28;20406;-69
2023/05/08 12:40:30;;;;;;;4.60;1.95;;;18.60;55.50;;;;;;5020211;28;20033;-69
2023/05/08 12:42:56;;;;;;;4.65;1.60;;;18.60;55.30;;;;;;5012488;28;20033;-71
2023/05/08 12:45:27;;;;;;;3.38;1.60;;;18.70;55.90;;;;;;5010020;28;20682;-69
2023/05/08 12:47:57;;;;;;;17.35;2.60;;;18.80;56.30;;;;;;5011450;28;20040;-71
2023/05/08 12:50:24;;;;;;;3.53;1.70;;;18.90;55.40;;;;;;5012438;28;20037;-70
2023/05/08 12:52:51;;;;;;;3.28;1.60;;;19.00;55.20;;;;;;4995298;28;20033;-69
2023/05/08 12:55:36;;;;;;;3.72;1.80;;;19.00;55.00;;;;;;5010460;28;20025;-69
2023/05/08 12:58:03;;;;;;;4.00;1.80;;;19.10;55.30;;;;;;5011127;28;20509;-69
2023/05/08 13:00:43;;;;;;;4.13;1.98;;;19.10;54.40;;;;;;5010504;28;20112;-69